sensor_id;sensor_type;location;lat;lon;timestamp;P1;durP1;ratioP1;P2;durP2;ratioP2
5801;SDS011;2927;49.366;8.530;2023-03-12T00:01:19;17.73;;;6.77;;
5801;SDS011;2927;49.366;8.530;2023-03-12T00:03:47;11.50;;;5.67;;
5801;SDS011;2927;49.366;8.530;2023-03-12T00:06:13;12.57;;;5.93;;
5801;SDS011;2927;49.366;8.530;2023-03-12T00:08:40;11.60;;;5.33;;
5801;SDS011;2927;49.366;8.530;2023-03-12T00:11:10;18.03;;;5.70;;
5801;SDS011;2927;49.366;8.530;2023-03-12T00:13:38;11.20;;;4.90;;
5801;SDS011;2927;49.366;8.530;2023-03-12T00:16:08;7.90;;;4.70;;
5801;SDS011;2927;49.366;8.530;2023-03-12T00:18:39;9.47;;;4.83;;
5801;SDS011;2927;49.366;8.530;2023-03-12T00:21:05;11.73;;;4.80;;
5801;SDS011;2927;49.366;8.530;2023-03-12T00:23:32;6.07;;;4.20;;
5801;SDS011;2927;49.366;8.530;2023-03-12T00:25:58;6.73;;;3.53;;
5801;SDS011;2927;49.366;8.530;2023-03-12T00:28:28;6.57;;;3.77;;
5801;SDS011;2927;49.366;8.530;2023-03-12T00:30:55;11.10;;;4.50;;
5801;SDS011;2927;49.366;8.530;2023-03-12T00:33:22;6.97;;;3.93;;
5801;SDS011;2927;49.366;8.530;2023-03-12T00:35:48;6.20;;;4.20;;
5801;SDS011;2927;49.366;8.530;2023-03-12T00:38:14;12.33;;;4.33;;
5801;SDS011;2927;49.366;8.530;2023-03-12T00:40:39;14.00;;;4.80;;
5801;SDS011;2927;49.366;8.530;2023-03-12T00:43:05;7.60;;;4.00;;
5801;SDS011;2927;49.366;8.530;2023-03-12T00:45:31;13.80;;;4.43;;
5801;SDS011;2927;49.366;8.530;2023-03-12T00:47:56;11.90;;;4.70;;
5801;SDS011;2927;49.366;8.530;2023-03-12T00:50:22;6.83;;;4.33;;
5801;SDS011;2927;49.366;8.530;2023-03-12T00:52:47;13.63;;;7.40;;
5801;SDS011;2927;49.366;8.530;2023-03-12T00:55:13;11.00;;;5.17;;
5801;SDS011;2927;49.366;8.530;2023-03-12T00:57:38;8.20;;;4.63;;
5801;SDS011;2927;49.366;8.530;2023-03-12T01:00:04;11.90;;;5.17;;
5801;SDS011;2927;49.366;8.530;2023-03-12T01:02:34;7.00;;;4.60;;
5801;SDS011;2927;49.366;8.530;2023-03-12T01:05:00;7.47;;;5.07;;
5801;SDS011;2927;49.366;8.530;2023-03-12T01:07:25;10.37;;;4.67;;
5801;SDS011;2927;49.366;8.530;2023-03-12T01:09:51;10.27;;;5.70;;
5801;SDS011;2927;49.366;8.530;2023-03-12T01:12:16;9.40;;;4.63;;
5801;SDS011;2927;49.366;8.530;2023-03-12T01:14:42;10.40;;;5.07;;
5801;SDS011;2927;49.366;8.530;2023-03-12T01:17:07;21.07;;;4.90;;
5801;SDS011;2927;49.366;8.530;2023-03-12T01:19:33;10.37;;;4.87;;
5801;SDS011;2927;49.366;8.530;2023-03-12T01:21:59;6.87;;;4.83;;
5801;SDS011;2927;49.366;8.530;2023-03-12T01:24:24;9.70;;;4.33;;
5801;SDS011;2927;49.366;8.530;2023-03-12T01:26:50;10.20;;;3.90;;
5801;SDS011;2927;49.366;8.530;2023-03-12T01:29:15;8.73;;;4.23;;
5801;SDS011;2927;49.366;8.530;2023-03-12T01:31:41;12.40;;;4.30;;
5801;SDS011;2927;49.366;8.530;2023-03-12T01:34:08;7.00;;;4.30;;
5801;SDS011;2927;49.366;8.530;2023-03-12T01:36:35;8.23;;;3.73;;
5801;SDS011;2927;49.366;8.530;2023-03-12T01:39:00;11.43;;;4.30;;
5801;SDS011;2927;49.366;8.530;2023-03-12T01:41:27;5.40;;;3.77;;
5801;SDS011;2927;49.366;8.530;2023-03-12T01:43:56;11.70;;;3.93;;
5801;SDS011;2927;49.366;8.530;2023-03-12T01:46:26;8.23;;;4.37;;
5801;SDS011;2927;49.366;8.530;2023-03-12T01:48:55;4.37;;;3.47;;
5801;SDS011;2927;49.366;8.530;2023-03-12T01:51:26;7.23;;;4.37;;
5801;SDS011;2927;49.366;8.530;2023-03-12T01:54:00;5.40;;;3.90;;
5801;SDS011;2927;49.366;8.530;2023-03-12T01:56:29;7.73;;;3.60;;
5801;SDS011;2927;49.366;8.530;2023-03-12T01:58:58;7.87;;;4.37;;
5801;SDS011;2927;49.366;8.530;2023-03-12T02:01:26;8.07;;;3.83;;
5801;SDS011;2927;49.366;8.530;2023-03-12T02:03:53;12.20;;;4.07;;
5801;SDS011;2927;49.366;8.530;2023-03-12T02:06:22;5.83;;;3.67;;
5801;SDS011;2927;49.366;8.530;2023-03-12T02:08:52;6.53;;;4.27;;
5801;SDS011;2927;49.366;8.530;2023-03-12T02:11:19;14.63;;;4.03;;
5801;SDS011;2927;49.366;8.530;2023-03-12T02:13:44;13.33;;;3.07;;
5801;SDS011;2927;49.366;8.530;2023-03-12T02:16:10;5.57;;;2.90;;
5801;SDS011;2927;49.366;8.530;2023-03-12T02:18:35;7.00;;;3.10;;
5801;SDS011;2927;49.366;8.530;2023-03-12T02:24:06;5.67;;;2.93;;
5801;SDS011;2927;49.366;8.530;2023-03-12T02:26:37;6.20;;;3.23;;
5801;SDS011;2927;49.366;8.530;2023-03-12T02:29:04;8.10;;;3.60;;
5801;SDS011;2927;49.366;8.530;2023-03-12T02:31:34;4.17;;;2.67;;
5801;SDS011;2927;49.366;8.530;2023-03-12T02:34:04;8.50;;;3.60;;
5801;SDS011;2927;49.366;8.530;2023-03-12T02:36:30;5.37;;;3.80;;
5801;SDS011;2927;49.366;8.530;2023-03-12T02:38:55;12.40;;;5.10;;
5801;SDS011;2927;49.366;8.530;2023-03-12T02:41:22;15.10;;;4.50;;
5801;SDS011;2927;49.366;8.530;2023-03-12T02:44:07;11.40;;;4.00;;
5801;SDS011;2927;49.366;8.530;2023-03-12T02:46:41;4.77;;;4.00;;
5801;SDS011;2927;49.366;8.530;2023-03-12T02:49:10;8.60;;;3.63;;
5801;SDS011;2927;49.366;8.530;2023-03-12T02:51:37;7.77;;;4.00;;
5801;SDS011;2927;49.366;8.530;2023-03-12T02:54:04;8.00;;;4.30;;
5801;SDS011;2927;49.366;8.530;2023-03-12T02:56:30;9.80;;;3.93;;
5801;SDS011;2927;49.366;8.530;2023-03-12T02:58:55;7.63;;;3.63;;
5801;SDS011;2927;49.366;8.530;2023-03-12T03:01:21;6.60;;;3.63;;
5801;SDS011;2927;49.366;8.530;2023-03-12T03:03:47;10.23;;;2.67;;
5801;SDS011;2927;49.366;8.530;2023-03-12T03:06:12;3.13;;;2.73;;
5801;SDS011;2927;49.366;8.530;2023-03-12T03:08:39;7.07;;;3.60;;
5801;SDS011;2927;49.366;8.530;2023-03-12T03:11:05;8.27;;;3.37;;
5801;SDS011;2927;49.366;8.530;2023-03-12T03:13:31;4.30;;;2.60;;
5801;SDS011;2927;49.366;8.530;2023-03-12T03:15:58;6.20;;;2.60;;
5801;SDS011;2927;49.366;8.530;2023-03-12T03:18:25;5.53;;;2.90;;
5801;SDS011;2927;49.366;8.530;2023-03-12T03:20:56;5.97;;;3.33;;
5801;SDS011;2927;49.366;8.530;2023-03-12T03:23:23;7.60;;;3.00;;
5801;SDS011;2927;49.366;8.530;2023-03-12T03:25:49;4.80;;;3.10;;
5801;SDS011;2927;49.366;8.530;2023-03-12T03:28:16;5.00;;;3.00;;
5801;SDS011;2927;49.366;8.530;2023-03-12T03:30:45;6.80;;;3.50;;
5801;SDS011;2927;49.366;8.530;2023-03-12T03:33:11;6.90;;;3.10;;
5801;SDS011;2927;49.366;8.530;2023-03-12T03:35:36;7.70;;;4.10;;
5801;SDS011;2927;49.366;8.530;2023-03-12T03:38:02;4.47;;;2.90;;
5801;SDS011;2927;49.366;8.530;2023-03-12T03:40:28;15.93;;;3.00;;
5801;SDS011;2927;49.366;8.530;2023-03-12T03:42:53;5.60;;;2.60;;
5801;SDS011;2927;49.366;8.530;2023-03-12T03:45:19;3.53;;;2.50;;
5801;SDS011;2927;49.366;8.530;2023-03-12T03:47:45;4.53;;;2.90;;
5801;SDS011;2927;49.366;8.530;2023-03-12T03:50:10;7.30;;;2.73;;
5801;SDS011;2927;49.366;8.530;2023-03-12T03:52:37;8.63;;;3.03;;
5801;SDS011;2927;49.366;8.530;2023-03-12T03:55:02;14.63;;;2.50;;
5801;SDS011;2927;49.366;8.530;2023-03-12T03:57:28;4.97;;;2.90;;
5801;SDS011;2927;49.366;8.530;2023-03-12T03:59:54;5.70;;;3.13;;
5801;SDS011;2927;49.366;8.530;2023-03-12T04:02:22;6.20;;;3.00;;
5801;SDS011;2927;49.366;8.530;2023-03-12T04:04:49;5.67;;;2.83;;
5801;SDS011;2927;49.366;8.530;2023-03-12T04:07:14;7.67;;;2.90;;
5801;SDS011;2927;49.366;8.530;2023-03-12T04:09:40;6.10;;;2.90;;
5801;SDS011;2927;49.366;8.530;2023-03-12T04:12:06;8.93;;;2.80;;
5801;SDS011;2927;49.366;8.530;2023-03-12T04:14:31;5.23;;;2.17;;
5801;SDS011;2927;49.366;8.530;2023-03-12T04:16:57;2.50;;;2.30;;
5801;SDS011;2927;49.366;8.530;2023-03-12T04:19:22;12.10;;;2.87;;
5801;SDS011;2927;49.366;8.530;2023-03-12T04:21:48;7.00;;;2.77;;
5801;SDS011;2927;49.366;8.530;2023-03-12T04:24:14;11.73;;;2.50;;
5801;SDS011;2927;49.366;8.530;2023-03-12T04:26:40;4.77;;;2.30;;
5801;SDS011;2927;49.366;8.530;2023-03-12T04:29:06;7.17;;;2.43;;
5801;SDS011;2927;49.366;8.530;2023-03-12T04:31:32;10.70;;;2.77;;
5801;SDS011;2927;49.366;8.530;2023-03-12T04:33:58;4.20;;;2.20;;
5801;SDS011;2927;49.366;8.530;2023-03-12T04:36:23;6.67;;;2.03;;
5801;SDS011;2927;49.366;8.530;2023-03-12T04:38:49;9.93;;;2.73;;
5801;SDS011;2927;49.366;8.530;2023-03-12T04:41:15;4.10;;;2.83;;
5801;SDS011;2927;49.366;8.530;2023-03-12T04:43:41;3.97;;;2.63;;
5801;SDS011;2927;49.366;8.530;2023-03-12T04:46:07;4.70;;;2.47;;
5801;SDS011;2927;49.366;8.530;2023-03-12T04:48:33;2.13;;;1.80;;
5801;SDS011;2927;49.366;8.530;2023-03-12T04:50:58;3.33;;;2.43;;
5801;SDS011;2927;49.366;8.530;2023-03-12T04:53:24;6.87;;;2.30;;
5801;SDS011;2927;49.366;8.530;2023-03-12T04:55:50;8.73;;;2.87;;
5801;SDS011;2927;49.366;8.530;2023-03-12T04:58:16;16.63;;;6.30;;
5801;SDS011;2927;49.366;8.530;2023-03-12T05:00:42;10.03;;;4.13;;
5801;SDS011;2927;49.366;8.530;2023-03-12T05:03:08;4.20;;;3.33;;
5801;SDS011;2927;49.366;8.530;2023-03-12T05:05:33;4.33;;;2.63;;
5801;SDS011;2927;49.366;8.530;2023-03-12T05:07:59;5.07;;;2.50;;
5801;SDS011;2927;49.366;8.530;2023-03-12T05:10:25;4.67;;;2.73;;
5801;SDS011;2927;49.366;8.530;2023-03-12T05:12:51;6.17;;;3.10;;
5801;SDS011;2927;49.366;8.530;2023-03-12T05:15:17;9.40;;;2.83;;
5801;SDS011;2927;49.366;8.530;2023-03-12T05:17:43;4.47;;;2.60;;
5801;SDS011;2927;49.366;8.530;2023-03-12T05:20:08;7.87;;;2.50;;
5801;SDS011;2927;49.366;8.530;2023-03-12T05:22:34;8.53;;;3.10;;
5801;SDS011;2927;49.366;8.530;2023-03-12T05:25:00;8.77;;;4.43;;
5801;SDS011;2927;49.366;8.530;2023-03-12T05:27:27;10.30;;;4.10;;
5801;SDS011;2927;49.366;8.530;2023-03-12T05:29:52;7.13;;;3.10;;
5801;SDS011;2927;49.366;8.530;2023-03-12T05:32:18;9.93;;;3.47;;
5801;SDS011;2927;49.366;8.530;2023-03-12T05:34:43;9.10;;;3.63;;
5801;SDS011;2927;49.366;8.530;2023-03-12T05:37:09;6.83;;;2.37;;
5801;SDS011;2927;49.366;8.530;2023-03-12T05:39:34;9.73;;;3.20;;
5801;SDS011;2927;49.366;8.530;2023-03-12T05:42:00;8.90;;;3.33;;
5801;SDS011;2927;49.366;8.530;2023-03-12T05:44:26;6.00;;;3.03;;
5801;SDS011;2927;49.366;8.530;2023-03-12T05:46:52;4.90;;;3.03;;
5801;SDS011;2927;49.366;8.530;2023-03-12T05:49:18;5.97;;;2.83;;
5801;SDS011;2927;49.366;8.530;2023-03-12T05:51:47;4.83;;;2.63;;
5801;SDS011;2927;49.366;8.530;2023-03-12T05:54:14;3.20;;;2.77;;
5801;SDS011;2927;49.366;8.530;2023-03-12T05:56:40;7.13;;;3.10;;
5801;SDS011;2927;49.366;8.530;2023-03-12T05:59:06;4.13;;;2.80;;
5801;SDS011;2927;49.366;8.530;2023-03-12T06:01:34;5.60;;;3.10;;
5801;SDS011;2927;49.366;8.530;2023-03-12T06:03:59;5.87;;;3.00;;
5801;SDS011;2927;49.366;8.530;2023-03-12T06:06:25;10.57;;;3.23;;
5801;SDS011;2927;49.366;8.530;2023-03-12T06:08:51;7.00;;;3.10;;
5801;SDS011;2927;49.366;8.530;2023-03-12T06:11:16;7.93;;;2.83;;
5801;SDS011;2927;49.366;8.530;2023-03-12T06:13:42;12.20;;;3.30;;
5801;SDS011;2927;49.366;8.530;2023-03-12T06:16:10;6.50;;;2.97;;
5801;SDS011;2927;49.366;8.530;2023-03-12T06:18:40;6.30;;;2.83;;
5801;SDS011;2927;49.366;8.530;2023-03-12T06:21:06;15.20;;;4.07;;
5801;SDS011;2927;49.366;8.530;2023-03-12T06:23:35;5.07;;;2.50;;
5801;SDS011;2927;49.366;8.530;2023-03-12T06:26:01;4.90;;;2.87;;
5801;SDS011;2927;49.366;8.530;2023-03-12T06:28:26;6.80;;;3.97;;
5801;SDS011;2927;49.366;8.530;2023-03-12T06:30:52;5.50;;;3.60;;
5801;SDS011;2927;49.366;8.530;2023-03-12T06:33:19;12.53;;;4.70;;
5801;SDS011;2927;49.366;8.530;2023-03-12T06:35:44;8.60;;;4.00;;
5801;SDS011;2927;49.366;8.530;2023-03-12T06:38:10;8.60;;;4.30;;
5801;SDS011;2927;49.366;8.530;2023-03-12T06:40:35;8.17;;;5.40;;
5801;SDS011;2927;49.366;8.530;2023-03-12T06:43:01;10.03;;;5.20;;
5801;SDS011;2927;49.366;8.530;2023-03-12T06:45:27;7.73;;;4.70;;
5801;SDS011;2927;49.366;8.530;2023-03-12T06:47:53;7.93;;;3.37;;
5801;SDS011;2927;49.366;8.530;2023-03-12T06:50:18;6.83;;;3.50;;
5801;SDS011;2927;49.366;8.530;2023-03-12T06:52:44;6.80;;;3.00;;
5801;SDS011;2927;49.366;8.530;2023-03-12T06:55:09;5.83;;;4.00;;
5801;SDS011;2927;49.366;8.530;2023-03-12T06:57:35;9.67;;;4.80;;
5801;SDS011;2927;49.366;8.530;2023-03-12T07:00:01;10.27;;;4.60;;
5801;SDS011;2927;49.366;8.530;2023-03-12T07:02:27;6.80;;;4.07;;
5801;SDS011;2927;49.366;8.530;2023-03-12T07:04:52;8.53;;;4.50;;
5801;SDS011;2927;49.366;8.530;2023-03-12T07:07:18;8.23;;;3.93;;
5801;SDS011;2927;49.366;8.530;2023-03-12T07:09:44;4.70;;;3.90;;
5801;SDS011;2927;49.366;8.530;2023-03-12T07:12:09;12.53;;;4.20;;
5801;SDS011;2927;49.366;8.530;2023-03-12T07:14:35;9.53;;;4.30;;
5801;SDS011;2927;49.366;8.530;2023-03-12T07:17:00;9.83;;;4.53;;
5801;SDS011;2927;49.366;8.530;2023-03-12T07:19:26;8.03;;;3.80;;
5801;SDS011;2927;49.366;8.530;2023-03-12T07:21:54;12.67;;;4.43;;
5801;SDS011;2927;49.366;8.530;2023-03-12T07:24:20;9.93;;;4.33;;
5801;SDS011;2927;49.366;8.530;2023-03-12T07:26:46;14.90;;;4.80;;
5801;SDS011;2927;49.366;8.530;2023-03-12T07:29:12;8.43;;;4.57;;
5801;SDS011;2927;49.366;8.530;2023-03-12T07:31:38;11.37;;;4.73;;
5801;SDS011;2927;49.366;8.530;2023-03-12T07:34:03;9.93;;;4.57;;
5801;SDS011;2927;49.366;8.530;2023-03-12T07:36:30;5.97;;;4.23;;
5801;SDS011;2927;49.366;8.530;2023-03-12T07:38:56;11.40;;;4.90;;
5801;SDS011;2927;49.366;8.530;2023-03-12T07:41:21;8.80;;;4.70;;
5801;SDS011;2927;49.366;8.530;2023-03-12T07:43:47;9.03;;;4.27;;
5801;SDS011;2927;49.366;8.530;2023-03-12T07:46:12;10.00;;;5.73;;
5801;SDS011;2927;49.366;8.530;2023-03-12T07:48:38;13.17;;;5.10;;
5801;SDS011;2927;49.366;8.530;2023-03-12T07:51:04;24.43;;;5.40;;
5801;SDS011;2927;49.366;8.530;2023-03-12T07:53:29;13.40;;;5.83;;
5801;SDS011;2927;49.366;8.530;2023-03-12T07:55:55;11.43;;;5.60;;
5801;SDS011;2927;49.366;8.530;2023-03-12T07:58:20;9.40;;;5.10;;
5801;SDS011;2927;49.366;8.530;2023-03-12T08:00:46;8.70;;;4.80;;
5801;SDS011;2927;49.366;8.530;2023-03-12T08:03:12;8.60;;;5.07;;
5801;SDS011;2927;49.366;8.530;2023-03-12T08:05:37;8.87;;;5.40;;
5801;SDS011;2927;49.366;8.530;2023-03-12T08:08:03;13.70;;;5.00;;
5801;SDS011;2927;49.366;8.530;2023-03-12T08:10:28;13.47;;;5.80;;
5801;SDS011;2927;49.366;8.530;2023-03-12T08:12:54;13.27;;;5.60;;
5801;SDS011;2927;49.366;8.530;2023-03-12T08:15:19;6.00;;;4.70;;
5801;SDS011;2927;49.366;8.530;2023-03-12T08:17:45;13.30;;;5.73;;
5801;SDS011;2927;49.366;8.530;2023-03-12T08:20:10;12.90;;;5.80;;
5801;SDS011;2927;49.366;8.530;2023-03-12T08:22:36;11.63;;;5.50;;
5801;SDS011;2927;49.366;8.530;2023-03-12T08:25:02;9.97;;;5.63;;
5801;SDS011;2927;49.366;8.530;2023-03-12T08:27:28;6.50;;;5.03;;
5801;SDS011;2927;49.366;8.530;2023-03-12T08:29:54;10.23;;;5.80;;
5801;SDS011;2927;49.366;8.530;2023-03-12T08:32:20;9.90;;;5.40;;
5801;SDS011;2927;49.366;8.530;2023-03-12T08:34:45;10.40;;;5.77;;
5801;SDS011;2927;49.366;8.530;2023-03-12T08:37:11;9.60;;;5.60;;
5801;SDS011;2927;49.366;8.530;2023-03-12T08:39:36;15.13;;;6.80;;
5801;SDS011;2927;49.366;8.530;2023-03-12T08:42:02;9.30;;;5.77;;
5801;SDS011;2927;49.366;8.530;2023-03-12T08:44:29;13.40;;;6.57;;
5801;SDS011;2927;49.366;8.530;2023-03-12T08:46:55;7.87;;;5.50;;
5801;SDS011;2927;49.366;8.530;2023-03-12T08:49:20;12.90;;;5.90;;
5801;SDS011;2927;49.366;8.530;2023-03-12T08:51:46;7.37;;;5.03;;
5801;SDS011;2927;49.366;8.530;2023-03-12T08:54:12;11.87;;;5.87;;
5801;SDS011;2927;49.366;8.530;2023-03-12T08:56:37;15.10;;;6.13;;
5801;SDS011;2927;49.366;8.530;2023-03-12T08:59:06;14.67;;;6.60;;
5801;SDS011;2927;49.366;8.530;2023-03-12T09:01:33;18.87;;;6.77;;
5801;SDS011;2927;49.366;8.530;2023-03-12T09:03:58;16.33;;;6.87;;
5801;SDS011;2927;49.366;8.530;2023-03-12T09:06:24;8.37;;;6.60;;
5801;SDS011;2927;49.366;8.530;2023-03-12T09:08:49;17.47;;;7.67;;
5801;SDS011;2927;49.366;8.530;2023-03-12T09:11:15;14.27;;;6.50;;
5801;SDS011;2927;49.366;8.530;2023-03-12T09:17:05;15.20;;;7.40;;
5801;SDS011;2927;49.366;8.530;2023-03-12T09:19:30;12.00;;;6.90;;
5801;SDS011;2927;49.366;8.530;2023-03-12T09:21:57;14.97;;;8.37;;
5801;SDS011;2927;49.366;8.530;2023-03-12T09:24:23;17.07;;;8.70;;
5801;SDS011;2927;49.366;8.530;2023-03-12T09:26:49;24.47;;;8.60;;
5801;SDS011;2927;49.366;8.530;2023-03-12T09:29:15;15.00;;;7.70;;
5801;SDS011;2927;49.366;8.530;2023-03-12T09:31:44;10.73;;;6.53;;
5801;SDS011;2927;49.366;8.530;2023-03-12T09:34:09;9.20;;;6.37;;
5801;SDS011;2927;49.366;8.530;2023-03-12T09:36:35;15.43;;;7.37;;
5801;SDS011;2927;49.366;8.530;2023-03-12T09:39:01;10.20;;;7.30;;
5801;SDS011;2927;49.366;8.530;2023-03-12T09:41:28;12.20;;;6.83;;
5801;SDS011;2927;49.366;8.530;2023-03-12T09:46:59;18.83;;;8.27;;
5801;SDS011;2927;49.366;8.530;2023-03-12T09:49:37;19.90;;;8.67;;
5801;SDS011;2927;49.366;8.530;2023-03-12T09:52:21;17.70;;;8.90;;
5801;SDS011;2927;49.366;8.530;2023-03-12T09:54:53;25.20;;;8.33;;
5801;SDS011;2927;49.366;8.530;2023-03-12T09:57:25;14.90;;;8.57;;
5801;SDS011;2927;49.366;8.530;2023-03-12T09:59:53;16.77;;;8.00;;
5801;SDS011;2927;49.366;8.530;2023-03-12T10:05:40;16.43;;;8.83;;
5801;SDS011;2927;49.366;8.530;2023-03-12T10:08:32;21.20;;;8.23;;
5801;SDS011;2927;49.366;8.530;2023-03-12T10:14:31;15.03;;;8.20;;
5801;SDS011;2927;49.366;8.530;2023-03-12T10:22:46;16.60;;;8.23;;
5801;SDS011;2927;49.366;8.530;2023-03-12T10:25:21;18.43;;;8.97;;
5801;SDS011;2927;49.366;8.530;2023-03-12T10:27:49;12.93;;;9.57;;
5801;SDS011;2927;49.366;8.530;2023-03-12T10:30:22;11.40;;;8.00;;
5801;SDS011;2927;49.366;8.530;2023-03-12T10:32:52;14.70;;;7.93;;
5801;SDS011;2927;49.366;8.530;2023-03-12T10:35:28;14.33;;;8.80;;
5801;SDS011;2927;49.366;8.530;2023-03-12T10:37:57;19.13;;;10.10;;
5801;SDS011;2927;49.366;8.530;2023-03-12T10:40:32;12.50;;;8.77;;
5801;SDS011;2927;49.366;8.530;2023-03-12T10:42:59;20.97;;;8.10;;
5801;SDS011;2927;49.366;8.530;2023-03-12T10:45:49;13.33;;;8.33;;
5801;SDS011;2927;49.366;8.530;2023-03-12T10:48:30;12.03;;;8.40;;
5801;SDS011;2927;49.366;8.530;2023-03-12T10:50:59;13.47;;;8.30;;
5801;SDS011;2927;49.366;8.530;2023-03-12T10:53:31;14.07;;;8.63;;
5801;SDS011;2927;49.366;8.530;2023-03-12T10:56:06;11.80;;;8.20;;
5801;SDS011;2927;49.366;8.530;2023-03-12T11:01:22;10.10;;;7.00;;
5801;SDS011;2927;49.366;8.530;2023-03-12T11:03:50;17.47;;;8.60;;
5801;SDS011;2927;49.366;8.530;2023-03-12T11:06:25;11.23;;;7.80;;
5801;SDS011;2927;49.366;8.530;2023-03-12T11:11:33;12.47;;;8.23;;
5801;SDS011;2927;49.366;8.530;2023-03-12T11:14:19;18.97;;;8.27;;
5801;SDS011;2927;49.366;8.530;2023-03-12T11:16:50;9.77;;;7.40;;
5801;SDS011;2927;49.366;8.530;2023-03-12T11:19:27;17.67;;;8.33;;
5801;SDS011;2927;49.366;8.530;2023-03-12T11:22:01;12.47;;;8.43;;
5801;SDS011;2927;49.366;8.530;2023-03-12T11:24:59;13.93;;;7.77;;
5801;SDS011;2927;49.366;8.530;2023-03-12T11:29:58;15.30;;;10.30;;
5801;SDS011;2927;49.366;8.530;2023-03-12T11:32:33;8.97;;;7.43;;
5801;SDS011;2927;49.366;8.530;2023-03-12T11:35:02;11.20;;;8.03;;
5801;SDS011;2927;49.366;8.530;2023-03-12T11:51:23;16.13;;;8.50;;
5801;SDS011;2927;49.366;8.530;2023-03-12T11:54:01;9.27;;;7.23;;
5801;SDS011;2927;49.366;8.530;2023-03-12T11:56:52;13.80;;;7.67;;
5801;SDS011;2927;49.366;8.530;2023-03-12T12:04:41;10.27;;;6.90;;
5801;SDS011;2927;49.366;8.530;2023-03-12T12:07:34;10.50;;;7.77;;
5801;SDS011;2927;49.366;8.530;2023-03-12T12:12:44;10.90;;;8.30;;
5801;SDS011;2927;49.366;8.530;2023-03-12T12:15:24;11.63;;;8.37;;
5801;SDS011;2927;49.366;8.530;2023-03-12T12:18:08;9.00;;;6.77;;
5801;SDS011;2927;49.366;8.530;2023-03-12T12:23:14;16.53;;;7.07;;
5801;SDS011;2927;49.366;8.530;2023-03-12T12:34:07;12.73;;;5.17;;
5801;SDS011;2927;49.366;8.530;2023-03-12T12:36:50;5.53;;;4.07;;
5801;SDS011;2927;49.366;8.530;2023-03-12T12:39:34;5.73;;;4.30;;
5801;SDS011;2927;49.366;8.530;2023-03-12T12:42:05;4.53;;;4.10;;
5801;SDS011;2927;49.366;8.530;2023-03-12T12:44:37;6.00;;;3.97;;
5801;SDS011;2927;49.366;8.530;2023-03-12T12:47:09;3.93;;;3.27;;
5801;SDS011;2927;49.366;8.530;2023-03-12T12:49:49;3.40;;;2.80;;
5801;SDS011;2927;49.366;8.530;2023-03-12T12:52:20;8.00;;;3.20;;
5801;SDS011;2927;49.366;8.530;2023-03-12T13:02:46;6.17;;;2.70;;
5801;SDS011;2927;49.366;8.530;2023-03-12T13:05:21;6.10;;;3.37;;
5801;SDS011;2927;49.366;8.530;2023-03-12T13:07:50;4.30;;;2.30;;
5801;SDS011;2927;49.366;8.530;2023-03-12T13:12:57;7.93;;;2.70;;
5801;SDS011;2927;49.366;8.530;2023-03-12T13:15:37;3.40;;;2.43;;
5801;SDS011;2927;49.366;8.530;2023-03-12T13:18:08;6.67;;;3.30;;
5801;SDS011;2927;49.366;8.530;2023-03-12T13:20:57;3.33;;;2.10;;
5801;SDS011;2927;49.366;8.530;2023-03-12T13:26:25;9.63;;;5.83;;
5801;SDS011;2927;49.366;8.530;2023-03-12T13:29:20;11.50;;;3.53;;
5801;SDS011;2927;49.366;8.530;2023-03-12T13:32:02;5.60;;;2.60;;
5801;SDS011;2927;49.366;8.530;2023-03-12T13:34:30;5.27;;;1.77;;
5801;SDS011;2927;49.366;8.530;2023-03-12T13:37:47;7.00;;;1.70;;
5801;SDS011;2927;49.366;8.530;2023-03-12T13:40:32;6.90;;;1.67;;
5801;SDS011;2927;49.366;8.530;2023-03-12T13:43:12;7.77;;;2.03;;
5801;SDS011;2927;49.366;8.530;2023-03-12T13:45:41;7.27;;;2.40;;
5801;SDS011;2927;49.366;8.530;2023-03-12T13:48:23;7.30;;;1.80;;
5801;SDS011;2927;49.366;8.530;2023-03-12T13:50:50;18.23;;;3.83;;
5801;SDS011;2927;49.366;8.530;2023-03-12T13:53:27;13.80;;;2.10;;
5801;SDS011;2927;49.366;8.530;2023-03-12T13:55:59;11.77;;;2.20;;
5801;SDS011;2927;49.366;8.530;2023-03-12T14:01:22;10.73;;;2.10;;
5801;SDS011;2927;49.366;8.530;2023-03-12T14:03:54;14.47;;;2.93;;
5801;SDS011;2927;49.366;8.530;2023-03-12T14:06:25;10.17;;;2.27;;
5801;SDS011;2927;49.366;8.530;2023-03-12T14:17:09;12.03;;;2.57;;
5801;SDS011;2927;49.366;8.530;2023-03-12T14:19:41;7.43;;;1.80;;
5801;SDS011;2927;49.366;8.530;2023-03-12T14:22:10;9.77;;;2.37;;
5801;SDS011;2927;49.366;8.530;2023-03-12T14:24:39;8.70;;;2.60;;
5801;SDS011;2927;49.366;8.530;2023-03-12T14:27:13;15.97;;;2.50;;
5801;SDS011;2927;49.366;8.530;2023-03-12T14:29:47;9.20;;;2.33;;
5801;SDS011;2927;49.366;8.530;2023-03-12T14:32:22;8.53;;;2.20;;
5801;SDS011;2927;49.366;8.530;2023-03-12T14:37:27;15.70;;;2.43;;
5801;SDS011;2927;49.366;8.530;2023-03-12T14:40:00;8.73;;;2.27;;
5801;SDS011;2927;49.366;8.530;2023-03-12T14:42:32;17.13;;;3.03;;
5801;SDS011;2927;49.366;8.530;2023-03-12T14:47:45;19.40;;;3.30;;
5801;SDS011;2927;49.366;8.530;2023-03-12T14:50:16;13.60;;;2.47;;
5801;SDS011;2927;49.366;8.530;2023-03-12T14:52:41;19.77;;;3.70;;
5801;SDS011;2927;49.366;8.530;2023-03-12T14:55:11;11.80;;;2.70;;
5801;SDS011;2927;49.366;8.530;2023-03-12T14:57:39;13.47;;;2.50;;
5801;SDS011;2927;49.366;8.530;2023-03-12T15:00:04;16.73;;;3.13;;
5801;SDS011;2927;49.366;8.530;2023-03-12T15:02:38;22.77;;;4.97;;
5801;SDS011;2927;49.366;8.530;2023-03-12T15:05:13;20.27;;;3.83;;
5801;SDS011;2927;49.366;8.530;2023-03-12T15:07:40;9.80;;;2.77;;
5801;SDS011;2927;49.366;8.530;2023-03-12T15:10:06;14.27;;;3.07;;
5801;SDS011;2927;49.366;8.530;2023-03-12T15:12:44;9.20;;;2.60;;
5801;SDS011;2927;49.366;8.530;2023-03-12T15:18:05;19.03;;;3.73;;
5801;SDS011;2927;49.366;8.530;2023-03-12T15:20:40;21.40;;;3.47;;
5801;SDS011;2927;49.366;8.530;2023-03-12T15:23:07;17.20;;;3.23;;
5801;SDS011;2927;49.366;8.530;2023-03-12T15:25:36;19.27;;;3.60;;
5801;SDS011;2927;49.366;8.530;2023-03-12T15:28:04;18.37;;;2.73;;
5801;SDS011;2927;49.366;8.530;2023-03-12T15:30:32;15.23;;;3.50;;
5801;SDS011;2927;49.366;8.530;2023-03-12T15:33:03;14.67;;;2.40;;
5801;SDS011;2927;49.366;8.530;2023-03-12T15:35:34;14.60;;;2.70;;
5801;SDS011;2927;49.366;8.530;2023-03-12T15:38:01;15.57;;;3.17;;
5801;SDS011;2927;49.366;8.530;2023-03-12T15:40:28;13.77;;;2.80;;
5801;SDS011;2927;49.366;8.530;2023-03-12T15:42:55;17.67;;;3.30;;
5801;SDS011;2927;49.366;8.530;2023-03-12T15:45:35;17.77;;;3.00;;
5801;SDS011;2927;49.366;8.530;2023-03-12T15:48:03;12.20;;;3.10;;
5801;SDS011;2927;49.366;8.530;2023-03-12T15:50:44;10.03;;;3.00;;
5801;SDS011;2927;49.366;8.530;2023-03-12T15:55:35;13.67;;;2.83;;
5801;SDS011;2927;49.366;8.530;2023-03-12T15:58:01;10.73;;;3.57;;
5801;SDS011;2927;49.366;8.530;2023-03-12T16:03:15;25.33;;;4.27;;
5801;SDS011;2927;49.366;8.530;2023-03-12T16:05:43;14.93;;;3.80;;
5801;SDS011;2927;49.366;8.530;2023-03-12T16:13:14;14.53;;;2.83;;
5801;SDS011;2927;49.366;8.530;2023-03-12T16:15:42;17.73;;;3.77;;
5801;SDS011;2927;49.366;8.530;2023-03-12T16:18:11;14.13;;;2.53;;
5801;SDS011;2927;49.366;8.530;2023-03-12T16:20:38;12.03;;;2.43;;
5801;SDS011;2927;49.366;8.530;2023-03-12T16:23:04;16.60;;;3.20;;
5801;SDS011;2927;49.366;8.530;2023-03-12T16:25:30;14.80;;;4.17;;
5801;SDS011;2927;49.366;8.530;2023-03-12T16:27:57;17.57;;;2.70;;
5801;SDS011;2927;49.366;8.530;2023-03-12T16:30:29;8.47;;;2.77;;
5801;SDS011;2927;49.366;8.530;2023-03-12T16:32:57;17.83;;;3.03;;
5801;SDS011;2927;49.366;8.530;2023-03-12T16:35:24;22.33;;;3.37;;
5801;SDS011;2927;49.366;8.530;2023-03-12T16:37:51;14.97;;;2.37;;
5801;SDS011;2927;49.366;8.530;2023-03-12T16:40:18;14.60;;;3.43;;
5801;SDS011;2927;49.366;8.530;2023-03-12T16:42:44;31.47;;;5.87;;
5801;SDS011;2927;49.366;8.530;2023-03-12T16:45:13;24.80;;;4.80;;
5801;SDS011;2927;49.366;8.530;2023-03-12T16:47:40;27.70;;;5.30;;
5801;SDS011;2927;49.366;8.530;2023-03-12T16:50:09;28.27;;;7.17;;
5801;SDS011;2927;49.366;8.530;2023-03-12T16:52:44;22.50;;;5.00;;
5801;SDS011;2927;49.366;8.530;2023-03-12T16:55:11;18.20;;;3.40;;
5801;SDS011;2927;49.366;8.530;2023-03-12T16:57:38;25.87;;;3.70;;
5801;SDS011;2927;49.366;8.530;2023-03-12T17:00:10;21.30;;;3.73;;
5801;SDS011;2927;49.366;8.530;2023-03-12T17:02:41;18.20;;;3.30;;